Lake Victor, Texas
Current Conditions -  °F | °C
As of 5:15 PM on Tuesday 25 Nov 2014 (Local Time) from KLZZ Reporting Station
Clear Clear  
Wind Chill: 58°   Ceiling: Unl
Heat Index: 58°   Visibility: 10mi
Dew Point: 27°   Wind: 3mph
Humidity: 30%   Direction: 290°WNW
Pressure: 30.19"   Gusts: NA
Location:  31.1064°N, 98.2303°W
Report Text: KLZZ 252315Z AUTO 29003KT 10SM CLR 15/M03 A3019 RMK AO2 T01451029
Loading
Personal Weather Stations






























Interactive Weather Map New forecast layout! Learn more

10-Day Weather Forecast

Advertisements
Track Severe Weather on mobile